Time;durP1;ratioP1;P1;durP2;ratioP2;P2;SDS_P1;SDS_P2;PMS_P1;PMS_P2;Temp;Humidity;BMP_temperature;BMP_pressure;BME280_temperature;BME280_humidity;BME280_pressure;Samples;Min_cycle;Max_cycle;Signal;HPM_P1;HPM_P2
2020/12/28 00:01:26;;;;;;;2.05;0.30;;;;;;;;;;5044987;28;20075;-69
2020/12/28 00:03:52;;;;;;;7.13;0.20;;;;;;;;;;5050267;28;20661;-69
2020/12/28 00:06:17;;;;;;;0.30;0.30;;;;;;;;;;5073285;28;20266;-69
2020/12/28 00:08:42;;;;;;;1.27;0.40;;;;;;;;;;5052575;28;20627;-69
2020/12/28 00:11:07;;;;;;;0.32;0.30;;;;;;;;;;5041380;28;20268;-70
2020/12/28 00:13:33;;;;;;;3.05;0.20;;;;;;;;;;5044341;28;20029;-70
2020/12/28 00:15:58;;;;;;;0.60;0.30;;;;;;;;;;5048841;28;20028;-70
2020/12/28 00:18:23;;;;;;;5.38;0.32;;;;;;;;;;5040283;28;20024;-69
2020/12/28 00:20:48;;;;;;;0.38;0.20;;;;;;;;;;5043768;28;20053;-69
2020/12/28 00:23:13;;;;;;;0.50;0.40;;;;;;;;;;5041752;28;20020;-69
2020/12/28 00:25:39;;;;;;;0.25;0.20;;;;;;;;;;5052501;28;20259;-69
2020/12/28 00:28:04;;;;;;;0.35;0.20;;;;;;;;;;5052560;28;20027;-70
2020/12/28 00:30:29;;;;;;;0.47;0.20;;;;;;;;;;5046212;28;20061;-70
2020/12/28 00:32:54;;;;;;;0.52;0.22;;;;;;;;;;5053810;28;20055;-70
2020/12/28 00:35:20;;;;;;;0.70;0.20;;;;;;;;;;5053315;28;20083;-70
2020/12/28 00:37:45;;;;;;;0.50;0.30;;;;;;;;;;5043146;28;20359;-70
2020/12/28 00:40:10;;;;;;;0.20;0.20;;;;;;;;;;5047263;28;20035;-70
2020/12/28 00:42:36;;;;;;;0.55;0.45;;;;;;;;;;5048720;28;20010;-70
2020/12/28 00:45:01;;;;;;;1.02;0.60;;;;;;;;;;5037515;28;20009;-70
2020/12/28 00:47:26;;;;;;;0.20;0.20;;;;;;;;;;5050326;28;20077;-70
2020/12/28 00:49:52;;;;;;;0.32;0.28;;;;;;;;;;5051539;28;20019;-70
2020/12/28 00:52:17;;;;;;;0.77;0.45;;;;;;;;;;5053429;28;20021;-70
2020/12/28 00:54:42;;;;;;;0.20;0.20;;;;;;;;;;5049878;28;20028;-70
2020/12/28 00:57:07;;;;;;;1.33;0.50;;;;;;;;;;5082195;23;20069;-73
2020/12/28 00:59:33;;;;;;;0.52;0.30;;;;;;;;;;5074195;28;20259;-71
2020/12/28 01:01:58;;;;;;;1.10;0.40;;;;;;;;;;5073979;28;20021;-71
2020/12/28 01:04:24;;;;;;;0.73;0.30;;;;;;;;;;5076261;28;20041;-74
2020/12/28 01:06:49;;;;;;;1.48;0.82;;;;;;;;;;5052018;28;20035;-73
2020/12/28 01:09:15;;;;;;;0.63;0.30;;;;;;;;;;5048989;28;20022;-72
2020/12/28 01:11:40;;;;;;;0.68;0.50;;;;;;;;;;5053663;28;20055;-73
2020/12/28 01:14:05;;;;;;;3.20;0.95;;;;;;;;;;5045984;28;20022;-74
2020/12/28 01:16:31;;;;;;;1.38;0.40;;;;;;;;;;5052594;28;20029;-72
2020/12/28 01:18:56;;;;;;;0.30;0.28;;;;;;;;;;5068340;28;20021;-74
2020/12/28 01:21:22;;;;;;;0.85;0.55;;;;;;;;;;5068619;28;20024;-72
2020/12/28 01:23:47;;;;;;;0.52;0.10;;;;;;;;;;5068055;28;20068;-73
2020/12/28 01:26:13;;;;;;;1.02;0.47;;;;;;;;;;5060113;28;20048;-73
2020/12/28 01:28:38;;;;;;;0.70;0.47;;;;;;;;;;5056763;28;20017;-73
2020/12/28 01:31:03;;;;;;;0.52;0.20;;;;;;;;;;5045428;28;20073;-73
2020/12/28 01:33:28;;;;;;;0.40;0.30;;;;;;;;;;5046828;28;20409;-73
2020/12/28 01:35:54;;;;;;;0.20;0.20;;;;;;;;;;5060763;28;20263;-73
2020/12/28 01:38:19;;;;;;;1.00;0.33;;;;;;;;;;5054744;28;20504;-72
2020/12/28 01:40:44;;;;;;;0.20;0.20;;;;;;;;;;5050066;28;20271;-73
2020/12/28 01:43:09;;;;;;;0.73;0.38;;;;;;;;;;5047944;28;20038;-72
2020/12/28 01:45:34;;;;;;;0.45;0.22;;;;;;;;;;5047574;28;20094;-73
2020/12/28 01:47:59;;;;;;;0.45;0.40;;;;;;;;;;5051452;28;20020;-71
2020/12/28 01:50:25;;;;;;;0.28;0.28;;;;;;;;;;5049281;28;20543;-72
2020/12/28 01:52:50;;;;;;;0.50;0.25;;;;;;;;;;5035661;28;20021;-73
2020/12/28 01:55:15;;;;;;;0.55;0.38;;;;;;;;;;5043619;28;20032;-72
2020/12/28 01:57:41;;;;;;;0.50;0.20;;;;;;;;;;5043127;28;20061;-73
2020/12/28 02:00:06;;;;;;;2.65;0.30;;;;;;;;;;5049241;28;20473;-73
2020/12/28 02:02:32;;;;;;;0.80;0.40;;;;;;;;;;5046810;28;20025;-72
2020/12/28 02:04:57;;;;;;;0.17;0.17;;;;;;;;;;5054329;28;20047;-72
2020/12/28 02:07:23;;;;;;;0.32;0.28;;;;;;;;;;5057265;28;20096;-73
2020/12/28 02:09:49;;;;;;;0.45;0.32;;;;;;;;;;5050175;28;20347;-72
2020/12/28 02:12:14;;;;;;;0.38;0.20;;;;;;;;;;5044781;28;20067;-72
2020/12/28 02:14:39;;;;;;;0.47;0.30;;;;;;;;;;5046621;28;20024;-72
2020/12/28 02:17:05;;;;;;;0.17;0.17;;;;;;;;;;5037890;28;20492;-72
2020/12/28 02:19:30;;;;;;;0.30;0.30;;;;;;;;;;5049553;28;20047;-71
2020/12/28 02:21:55;;;;;;;0.65;0.30;;;;;;;;;;5047800;28;20025;-73
2020/12/28 02:24:21;;;;;;;0.60;0.32;;;;;;;;;;5046469;28;20026;-72
2020/12/28 02:26:46;;;;;;;0.20;0.20;;;;;;;;;;5051920;28;20032;-72
2020/12/28 02:29:11;;;;;;;0.45;0.20;;;;;;;;;;5042009;28;20024;-71
2020/12/28 02:31:36;;;;;;;0.30;0.30;;;;;;;;;;5057315;28;20044;-73
2020/12/28 02:34:01;;;;;;;0.20;0.20;;;;;;;;;;5048320;28;20025;-72
2020/12/28 02:36:26;;;;;;;1.15;0.45;;;;;;;;;;5048092;28;20385;-73
2020/12/28 02:38:52;;;;;;;0.10;0.10;;;;;;;;;;5040470;28;20048;-73
2020/12/28 02:41:17;;;;;;;0.35;0.30;;;;;;;;;;5049145;28;20040;-73
2020/12/28 02:43:42;;;;;;;0.45;0.45;;;;;;;;;;5047379;28;20033;-73
2020/12/28 02:46:07;;;;;;;0.93;0.20;;;;;;;;;;5051435;28;20071;-73
2020/12/28 02:48:32;;;;;;;0.40;0.20;;;;;;;;;;5049707;28;20029;-72
2020/12/28 02:50:58;;;;;;;0.10;0.10;;;;;;;;;;5041842;28;20033;-72
2020/12/28 02:53:23;;;;;;;0.20;0.20;;;;;;;;;;5048478;28;20052;-73
2020/12/28 02:55:48;;;;;;;0.63;0.63;;;;;;;;;;5041447;28;20064;-73
2020/12/28 02:58:13;;;;;;;0.20;0.13;;;;;;;;;;5043132;28;20477;-73
2020/12/28 03:00:38;;;;;;;0.45;0.28;;;;;;;;;;5048627;28;20022;-73
2020/12/28 03:03:04;;;;;;;1.77;0.25;;;;;;;;;;5049933;28;20017;-73
2020/12/28 03:05:29;;;;;;;0.30;0.20;;;;;;;;;;5047123;28;20071;-73
2020/12/28 03:07:54;;;;;;;0.15;0.15;;;;;;;;;;5050686;28;20052;-72
2020/12/28 03:10:20;;;;;;;0.20;0.10;;;;;;;;;;5040080;28;20029;-72
2020/12/28 03:12:45;;;;;;;0.45;0.20;;;;;;;;;;5044412;28;20024;-72
2020/12/28 03:15:10;;;;;;;0.53;0.20;;;;;;;;;;5041702;28;20061;-72
2020/12/28 03:17:35;;;;;;;0.28;0.28;;;;;;;;;;5044584;28;20274;-72
2020/12/28 03:20:00;;;;;;;1.25;0.82;;;;;;;;;;5051042;28;20103;-72
2020/12/28 03:22:26;;;;;;;0.33;0.20;;;;;;;;;;5043331;28;20033;-72
2020/12/28 03:24:51;;;;;;;0.20;0.20;;;;;;;;;;5045408;28;20259;-72
2020/12/28 03:27:16;;;;;;;0.20;0.20;;;;;;;;;;5038570;28;20489;-71
2020/12/28 03:29:41;;;;;;;0.20;0.20;;;;;;;;;;5044390;28;20032;-73
2020/12/28 03:32:06;;;;;;;0.20;0.10;;;;;;;;;;5050276;28;20031;-72
2020/12/28 03:34:31;;;;;;;0.20;0.20;;;;;;;;;;5052679;28;20044;-72
2020/12/28 03:36:57;;;;;;;0.30;0.10;;;;;;;;;;5059205;28;20016;-72
2020/12/28 03:39:22;;;;;;;0.60;0.22;;;;;;;;;;5058535;28;20100;-72
2020/12/28 03:41:47;;;;;;;0.47;0.20;;;;;;;;;;5045972;28;20021;-72
2020/12/28 03:44:12;;;;;;;0.52;0.30;;;;;;;;;;5048009;28;20025;-72
2020/12/28 03:46:37;;;;;;;0.22;0.20;;;;;;;;;;5041147;28;20381;-72
2020/12/28 03:49:03;;;;;;;0.30;0.20;;;;;;;;;;5045486;28;20489;-72
2020/12/28 03:51:28;;;;;;;0.22;0.20;;;;;;;;;;5047345;28;20263;-73
2020/12/28 03:53:53;;;;;;;0.52;0.40;;;;;;;;;;5041078;28;20028;-72
2020/12/28 03:56:18;;;;;;;0.10;0.10;;;;;;;;;;5050225;28;20025;-72
2020/12/28 03:58:44;;;;;;;0.80;0.25;;;;;;;;;;5040871;28;20051;-72
2020/12/28 04:01:09;;;;;;;0.52;0.32;;;;;;;;;;5041321;28;20021;-72
2020/12/28 04:03:34;;;;;;;0.52;0.52;;;;;;;;;;5045650;28;20354;-73
2020/12/28 04:06:01;;;;;;;4.33;0.50;;;;;;;;;;5052472;28;20709;-72
2020/12/28 04:08:26;;;;;;;1.13;0.63;;;;;;;;;;5062656;28;20270;-72
2020/12/28 04:10:51;;;;;;;2.05;0.25;;;;;;;;;;5048482;28;20017;-72
2020/12/28 04:13:17;;;;;;;1.63;0.57;;;;;;;;;;5048961;28;20429;-74
2020/12/28 04:15:42;;;;;;;1.80;0.80;;;;;;;;;;5044340;28;20292;-72
2020/12/28 04:18:07;;;;;;;1.20;0.50;;;;;;;;;;5046474;28;20040;-73
2020/12/28 04:20:32;;;;;;;0.50;0.40;;;;;;;;;;5040437;28;20029;-73
2020/12/28 04:22:57;;;;;;;0.85;0.47;;;;;;;;;;5043136;28;20317;-73
2020/12/28 04:25:22;;;;;;;0.85;0.50;;;;;;;;;;5050412;28;20059;-73
2020/12/28 04:27:48;;;;;;;0.70;0.40;;;;;;;;;;5057931;28;20036;-71
2020/12/28 04:30:13;;;;;;;1.90;0.30;;;;;;;;;;5062220;28;20332;-72
2020/12/28 04:32:38;;;;;;;1.77;0.40;;;;;;;;;;5057406;28;20029;-73
2020/12/28 04:35:04;;;;;;;0.70;0.52;;;;;;;;;;5060877;28;20025;-72
2020/12/28 04:37:29;;;;;;;0.30;0.30;;;;;;;;;;5062249;28;20532;-71
2020/12/28 04:39:54;;;;;;;4.55;0.52;;;;;;;;;;5073549;28;20080;-71
2020/12/28 04:42:26;;;;;;;0.65;0.45;;;;;;;;;;5061936;28;20047;-72
2020/12/28 04:44:51;;;;;;;0.30;0.30;;;;;;;;;;5068818;28;20012;-71
2020/12/28 04:47:17;;;;;;;1.02;0.30;;;;;;;;;;5059946;28;20071;-72
2020/12/28 04:49:44;;;;;;;6.60;0.68;;;;;;;;;;5063406;28;20018;-75
2020/12/28 04:52:10;;;;;;;0.50;0.38;;;;;;;;;;5052440;28;20024;-71
2020/12/28 04:54:35;;;;;;;0.95;0.43;;;;;;;;;;5062729;28;20025;-72
2020/12/28 04:57:01;;;;;;;0.90;0.40;;;;;;;;;;5058917;28;20037;-75
2020/12/28 04:59:26;;;;;;;0.35;0.30;;;;;;;;;;5064033;28;20255;-73
2020/12/28 05:01:52;;;;;;;0.30;0.20;;;;;;;;;;5056346;28;20055;-71
2020/12/28 05:04:17;;;;;;;1.55;0.22;;;;;;;;;;5051675;28;20268;-72
2020/12/28 05:06:53;;;;;;;0.90;0.40;;;;;;;;;;5065695;28;20586;-73
2020/12/28 05:09:19;;;;;;;0.68;0.40;;;;;;;;;;5067702;28;20035;-72
2020/12/28 05:11:44;;;;;;;0.73;0.50;;;;;;;;;;5061583;28;20024;-73
2020/12/28 05:14:14;;;;;;;0.20;0.20;;;;;;;;;;5064567;28;20028;-72
2020/12/28 05:16:39;;;;;;;0.88;0.40;;;;;;;;;;5053998;28;20021;-72
2020/12/28 05:19:06;;;;;;;0.43;0.35;;;;;;;;;;5059495;28;20029;-72
2020/12/28 05:21:32;;;;;;;0.95;0.40;;;;;;;;;;5062561;28;20020;-73
2020/12/28 05:23:57;;;;;;;1.13;0.30;;;;;;;;;;5054790;28;20062;-72
2020/12/28 05:26:22;;;;;;;0.20;0.20;;;;;;;;;;5057144;28;20035;-72
2020/12/28 05:28:49;;;;;;;0.77;0.40;;;;;;;;;;5053995;28;20052;-72
2020/12/28 05:31:15;;;;;;;0.30;0.28;;;;;;;;;;5053215;28;20021;-71
2020/12/28 05:33:40;;;;;;;4.13;0.40;;;;;;;;;;5058286;28;20041;-72
2020/12/28 05:36:05;;;;;;;1.42;0.40;;;;;;;;;;5067572;28;20091;-71
2020/12/28 05:38:32;;;;;;;1.58;0.40;;;;;;;;;;5077962;28;20024;-72
2020/12/28 05:41:01;;;;;;;1.15;0.50;;;;;;;;;;5061228;28;20681;-71
2020/12/28 05:43:29;;;;;;;1.25;0.80;;;;;;;;;;5054200;28;20014;-71
2020/12/28 05:45:54;;;;;;;1.02;0.50;;;;;;;;;;5070999;28;20028;-71
2020/12/28 05:48:22;;;;;;;0.95;0.60;;;;;;;;;;5070403;28;20013;-70
2020/12/28 05:50:51;;;;;;;1.13;0.60;;;;;;;;;;5060203;28;20048;-71
2020/12/28 05:53:16;;;;;;;4.78;2.35;;;;;;;;;;5075756;28;20017;-70
2020/12/28 05:55:41;;;;;;;0.20;0.20;;;;;;;;;;5070485;28;20012;-70
2020/12/28 05:58:07;;;;;;;0.60;0.32;;;;;;;;;;5068632;28;20055;-72
2020/12/28 06:00:34;;;;;;;2.95;0.40;;;;;;;;;;5069966;28;20329;-70
2020/12/28 06:03:08;;;;;;;1.27;0.40;;;;;;;;;;5056187;28;20014;-72
2020/12/28 06:05:34;;;;;;;0.82;0.38;;;;;;;;;;5068152;28;20017;-71
2020/12/28 06:07:59;;;;;;;0.10;0.10;;;;;;;;;;5076189;28;20051;-70
2020/12/28 06:10:25;;;;;;;0.70;0.43;;;;;;;;;;5060353;28;20067;-73
2020/12/28 06:12:55;;;;;;;0.40;0.38;;;;;;;;;;5062997;28;20263;-72
2020/12/28 06:15:20;;;;;;;1.30;0.35;;;;;;;;;;5054065;28;20043;-73
2020/12/28 06:17:45;;;;;;;0.10;0.10;;;;;;;;;;5052278;28;20029;-71
2020/12/28 06:20:14;;;;;;;0.63;0.38;;;;;;;;;;5050917;28;20070;-72
2020/12/28 06:22:41;;;;;;;0.95;0.50;;;;;;;;;;5058866;28;20033;-73
2020/12/28 06:25:09;;;;;;;0.88;0.50;;;;;;;;;;5057995;28;20029;-73
2020/12/28 06:27:41;;;;;;;0.38;0.20;;;;;;;;;;5048917;28;20013;-72
2020/12/28 06:30:16;;;;;;;2.70;0.50;;;;;;;;;;5036181;28;20072;-72
2020/12/28 06:32:42;;;;;;;1.15;0.22;;;;;;;;;;5044126;28;20508;-72
2020/12/28 06:35:15;;;;;;;0.30;0.30;;;;;;;;;;5047452;28;20524;-71
2020/12/28 06:37:44;;;;;;;0.30;0.20;;;;;;;;;;5054946;28;20644;-72
2020/12/28 06:40:10;;;;;;;1.00;0.20;;;;;;;;;;5046537;28;20028;-72
2020/12/28 06:42:36;;;;;;;0.93;0.30;;;;;;;;;;5055378;28;20017;-71
2020/12/28 06:45:11;;;;;;;0.73;0.30;;;;;;;;;;5057150;28;20023;-72
2020/12/28 06:47:36;;;;;;;0.28;0.28;;;;;;;;;;5044484;28;20487;-71
2020/12/28 06:50:02;;;;;;;3.90;0.95;;;;;;;;;;5044147;28;20059;-71
2020/12/28 06:52:27;;;;;;;0.45;0.20;;;;;;;;;;5046314;28;20029;-71
2020/12/28 06:54:52;;;;;;;0.63;0.30;;;;;;;;;;5046732;28;20532;-71
2020/12/28 06:57:22;;;;;;;0.50;0.30;;;;;;;;;;5044969;28;20346;-72
2020/12/28 06:59:48;;;;;;;3.03;0.40;;;;;;;;;;5048088;28;20021;-71
2020/12/28 07:02:15;;;;;;;0.57;0.30;;;;;;;;;;5041004;28;20064;-71
2020/12/28 07:04:40;;;;;;;3.47;0.40;;;;;;;;;;5046525;28;20070;-71
2020/12/28 07:07:06;;;;;;;0.20;0.20;;;;;;;;;;5039545;28;20017;-72
2020/12/28 07:09:32;;;;;;;0.08;0.05;;;;;;;;;;5043440;28;20029;-72
2020/12/28 07:12:10;;;;;;;0.20;0.20;;;;;;;;;;5034463;28;20058;-73
2020/12/28 07:14:39;;;;;;;0.30;0.20;;;;;;;;;;5044837;28;20359;-72
2020/12/28 07:17:04;;;;;;;0.57;0.40;;;;;;;;;;5044948;28;20025;-72
2020/12/28 07:19:30;;;;;;;0.88;0.40;;;;;;;;;;5046701;28;20029;-72
2020/12/28 07:21:55;;;;;;;2.05;0.30;;;;;;;;;;5050088;28;20545;-72
2020/12/28 07:24:20;;;;;;;0.60;0.50;;;;;;;;;;5053316;28;20043;-72
2020/12/28 07:26:47;;;;;;;0.30;0.22;;;;;;;;;;5043595;28;20025;-72
2020/12/28 07:29:13;;;;;;;2.10;0.50;;;;;;;;;;5039603;28;20022;-73
2020/12/28 07:31:39;;;;;;;0.70;0.43;;;;;;;;;;5034413;28;20033;-72
2020/12/28 07:34:05;;;;;;;3.92;1.95;;;;;;;;;;5040493;28;20028;-72
2020/12/28 07:36:30;;;;;;;0.43;0.40;;;;;;;;;;5043784;28;20025;-71
2020/12/28 07:38:56;;;;;;;6.40;0.55;;;;;;;;;;5046356;28;20059;-73
2020/12/28 07:41:22;;;;;;;1.98;0.52;;;;;;;;;;5052317;28;20102;-72
2020/12/28 07:43:48;;;;;;;0.70;0.45;;;;;;;;;;5055955;28;20021;-72
2020/12/28 07:46:19;;;;;;;2.35;0.47;;;;;;;;;;5052149;28;20836;-72
2020/12/28 07:48:45;;;;;;;1.05;0.55;;;;;;;;;;5050859;28;20021;-73
2020/12/28 07:51:13;;;;;;;0.80;0.40;;;;;;;;;;5044804;28;20039;-71
2020/12/28 07:53:41;;;;;;;2.50;0.70;;;;;;;;;;5050012;28;20032;-73
2020/12/28 07:56:08;;;;;;;1.17;0.65;;;;;;;;;;5049759;28;20029;-72
2020/12/28 07:58:56;;;;;;;1.35;0.65;;;;;;;;;;5043401;28;20025;-72
2020/12/28 08:01:31;;;;;;;3.85;0.50;;;;;;;;;;5044754;28;20037;-71
2020/12/28 08:03:59;;;;;;;0.70;0.40;;;;;;;;;;5040365;28;20024;-72
2020/12/28 08:06:25;;;;;;;0.90;0.30;;;;;;;;;;5051649;28;20021;-71
2020/12/28 08:08:58;;;;;;;0.73;0.32;;;;;;;;;;5051298;28;20045;-72
2020/12/28 08:11:23;;;;;;;0.90;0.57;;;;;;;;;;5053439;28;20039;-73
2020/12/28 08:13:48;;;;;;;0.75;0.52;;;;;;;;;;5049326;28;20029;-71
2020/12/28 08:16:15;;;;;;;1.65;0.40;;;;;;;;;;5043074;28;20052;-72
2020/12/28 08:18:58;;;;;;;0.30;0.30;;;;;;;;;;5054267;28;20021;-71
2020/12/28 08:21:24;;;;;;;0.90;0.40;;;;;;;;;;5052925;28;20067;-71
2020/12/28 08:23:50;;;;;;;1.58;0.28;;;;;;;;;;5046965;28;20669;-73
2020/12/28 08:26:20;;;;;;;0.25;0.25;;;;;;;;;;5050091;28;20017;-73
2020/12/28 08:28:46;;;;;;;0.50;0.30;;;;;;;;;;5054060;28;20044;-73
2020/12/28 08:31:11;;;;;;;5.28;0.52;;;;;;;;;;5054000;28;20485;-72
2020/12/28 08:33:36;;;;;;;3.80;0.90;;;;;;;;;;5048606;28;20021;-72
2020/12/28 08:36:01;;;;;;;2.40;0.90;;;;;;;;;;5053564;28;20497;-73
2020/12/28 08:38:30;;;;;;;1.70;0.75;;;;;;;;;;5054660;28;20025;-71
2020/12/28 08:40:55;;;;;;;1.80;0.52;;;;;;;;;;5049953;28;20013;-71
2020/12/28 08:43:21;;;;;;;1.45;1.02;;;;;;;;;;5046847;28;20035;-70
2020/12/28 08:45:46;;;;;;;3.38;1.00;;;;;;;;;;5051714;28;20021;-72
2020/12/28 08:48:11;;;;;;;4.72;1.10;;;;;;;;;;5048855;28;20104;-70
2020/12/28 08:50:37;;;;;;;7.97;1.10;;;;;;;;;;5048303;28;20999;-71
2020/12/28 08:53:02;;;;;;;1.15;0.70;;;;;;;;;;5049178;28;20016;-71
2020/12/28 08:55:27;;;;;;;0.95;0.65;;;;;;;;;;5052597;28;20025;-71
2020/12/28 08:57:53;;;;;;;0.88;0.60;;;;;;;;;;5047567;28;20112;-70
2020/12/28 09:00:19;;;;;;;3.00;0.60;;;;;;;;;;5052110;28;20539;-69
2020/12/28 09:02:51;;;;;;;3.28;0.52;;;;;;;;;;5047191;28;20026;-71
2020/12/28 09:05:17;;;;;;;1.10;0.50;;;;;;;;;;5050412;28;20092;-71
2020/12/28 09:07:42;;;;;;;3.17;0.77;;;;;;;;;;5034713;28;20117;-71
2020/12/28 09:10:07;;;;;;;1.20;0.68;;;;;;;;;;5034247;28;20017;-71
2020/12/28 09:12:32;;;;;;;2.00;0.90;;;;;;;;;;5053908;28;20393;-70
2020/12/28 09:14:57;;;;;;;1.53;0.63;;;;;;;;;;5048038;28;20305;-70
2020/12/28 09:17:23;;;;;;;3.53;0.60;;;;;;;;;;5043209;28;20876;-71
2020/12/28 09:19:48;;;;;;;0.80;0.47;;;;;;;;;;5046417;28;20474;-73
2020/12/28 09:22:14;;;;;;;5.85;0.68;;;;;;;;;;5044996;28;20052;-71
2020/12/28 09:24:39;;;;;;;2.10;0.82;;;;;;;;;;5050590;28;20063;-71
2020/12/28 09:27:04;;;;;;;3.75;1.00;;;;;;;;;;5049648;28;20370;-71
2020/12/28 09:29:29;;;;;;;2.15;0.40;;;;;;;;;;5046124;28;20130;-70
2020/12/28 09:31:54;;;;;;;2.35;0.90;;;;;;;;;;5048881;28;20033;-71
2020/12/28 09:34:19;;;;;;;0.88;0.45;;;;;;;;;;5048189;28;20048;-71
2020/12/28 09:36:45;;;;;;;2.50;0.70;;;;;;;;;;5040586;28;20029;-72
2020/12/28 09:39:10;;;;;;;1.65;0.80;;;;;;;;;;5069980;28;20048;-70
2020/12/28 09:41:35;;;;;;;2.17;0.70;;;;;;;;;;5059593;28;20032;-71
2020/12/28 09:44:00;;;;;;;0.77;0.68;;;;;;;;;;5045747;28;20029;-71
2020/12/28 09:46:25;;;;;;;3.80;0.80;;;;;;;;;;5051609;28;20525;-72
2020/12/28 09:48:51;;;;;;;0.43;0.35;;;;;;;;;;5052063;28;20359;-70
2020/12/28 09:51:16;;;;;;;1.50;0.63;;;;;;;;;;5045247;28;20021;-71
2020/12/28 09:53:42;;;;;;;2.45;1.05;;;;;;;;;;5050003;28;20528;-71
2020/12/28 09:56:08;;;;;;;5.70;0.82;;;;;;;;;;5045402;28;20366;-70
2020/12/28 09:58:33;;;;;;;2.90;0.95;;;;;;;;;;5043556;28;20024;-72
2020/12/28 10:01:01;;;;;;;4.70;0.60;;;;;;;;;;5045469;28;20020;-72
2020/12/28 10:03:27;;;;;;;1.48;0.65;;;;;;;;;;5047848;28;20025;-71
2020/12/28 10:05:52;;;;;;;1.50;0.45;;;;;;;;;;5051290;28;20021;-71
2020/12/28 10:08:17;;;;;;;5.82;0.57;;;;;;;;;;5056989;28;20024;-72
2020/12/28 10:10:44;;;;;;;1.67;0.85;;;;;;;;;;5047935;28;20026;-72
2020/12/28 10:13:10;;;;;;;4.65;0.73;;;;;;;;;;5044003;28;20039;-71
2020/12/28 10:15:35;;;;;;;3.22;0.85;;;;;;;;;;5049093;28;20029;-71
2020/12/28 10:18:19;;;;;;;2.00;0.50;;;;;;;;;;5044557;28;20481;-71
2020/12/28 10:20:44;;;;;;;3.33;0.70;;;;;;;;;;5043055;28;20028;-70
2020/12/28 10:23:10;;;;;;;2.55;0.68;;;;;;;;;;5047224;28;20021;-70
2020/12/28 10:25:35;;;;;;;3.17;0.50;;;;;;;;;;5055480;28;20681;-70
2020/12/28 10:28:01;;;;;;;1.98;0.63;;;;;;;;;;5043984;28;20041;-72
2020/12/28 10:30:26;;;;;;;2.95;0.90;;;;;;;;;;5045057;28;20025;-73
2020/12/28 10:32:51;;;;;;;1.10;0.50;;;;;;;;;;5044259;28;20083;-72
2020/12/28 10:35:16;;;;;;;0.57;0.40;;;;;;;;;;5048212;28;20057;-71
2020/12/28 10:37:41;;;;;;;1.90;0.87;;;;;;;;;;5044279;28;20896;-71
2020/12/28 10:40:07;;;;;;;2.30;0.63;;;;;;;;;;5056729;28;20332;-71
2020/12/28 10:42:33;;;;;;;2.80;1.05;;;;;;;;;;5046012;28;20096;-72
2020/12/28 10:44:58;;;;;;;0.63;0.57;;;;;;;;;;5038506;28;20071;-71
2020/12/28 10:47:23;;;;;;;1.67;0.73;;;;;;;;;;5046121;28;20017;-74
2020/12/28 10:49:48;;;;;;;0.40;0.27;;;;;;;;;;5048650;28;20362;-73
2020/12/28 10:52:14;;;;;;;2.30;0.47;;;;;;;;;;5043019;28;20275;-71
2020/12/28 10:54:40;;;;;;;3.80;1.25;;;;;;;;;;5051950;28;20032;-71
2020/12/28 10:57:05;;;;;;;2.00;0.70;;;;;;;;;;5049970;28;20029;-71
2020/12/28 10:59:30;;;;;;;1.08;0.60;;;;;;;;;;5046696;28;20051;-71
2020/12/28 11:01:56;;;;;;;3.43;0.80;;;;;;;;;;5038886;28;20025;-70
2020/12/28 11:04:21;;;;;;;2.17;0.93;;;;;;;;;;5047131;28;20332;-71
2020/12/28 11:06:46;;;;;;;0.28;0.20;;;;;;;;;;5045973;28;20018;-71
2020/12/28 11:09:11;;;;;;;4.70;0.90;;;;;;;;;;5050098;28;20397;-71
2020/12/28 11:11:36;;;;;;;0.93;0.52;;;;;;;;;;5042956;28;20343;-72
2020/12/28 11:14:01;;;;;;;5.70;1.30;;;;;;;;;;5045379;28;20046;-71
2020/12/28 11:16:27;;;;;;;1.08;0.70;;;;;;;;;;5048085;28;20104;-72
2020/12/28 11:18:52;;;;;;;3.63;1.00;;;;;;;;;;5047477;28;20389;-70
2020/12/28 11:21:17;;;;;;;3.25;1.10;;;;;;;;;;5051288;28;20029;-71
2020/12/28 11:24:01;;;;;;;3.92;0.82;;;;;;;;;;5042578;28;20104;-72
2020/12/28 11:26:27;;;;;;;2.08;0.63;;;;;;;;;;5049446;28;20542;-71
2020/12/28 11:28:52;;;;;;;2.75;0.80;;;;;;;;;;5041043;28;20100;-72
2020/12/28 11:31:18;;;;;;;1.40;0.57;;;;;;;;;;5045277;28;20147;-72
2020/12/28 11:33:44;;;;;;;1.58;0.68;;;;;;;;;;5037782;28;20063;-72
2020/12/28 11:36:10;;;;;;;6.47;0.85;;;;;;;;;;5052807;28;20025;-72
2020/12/28 11:38:35;;;;;;;2.42;0.95;;;;;;;;;;5062400;28;20047;-68
2020/12/28 11:41:00;;;;;;;4.43;1.38;;;;;;;;;;5054748;28;20028;-72
2020/12/28 11:43:25;;;;;;;4.03;0.98;;;;;;;;;;5050387;28;20017;-72
2020/12/28 11:45:51;;;;;;;1.70;0.80;;;;;;;;;;5049201;28;20531;-72
2020/12/28 11:48:16;;;;;;;1.83;0.70;;;;;;;;;;5052079;28;20448;-73
2020/12/28 11:50:41;;;;;;;4.20;0.70;;;;;;;;;;5051101;28;20386;-72
2020/12/28 11:53:06;;;;;;;2.37;0.93;;;;;;;;;;5039025;28;20256;-72
2020/12/28 11:56:01;;;;;;;2.58;0.82;;;;;;;;;;5053417;28;20589;-73
2020/12/28 11:58:16;;;;;;;2.63;1.67;;;;;;;;;;5050719;28;20037;-73
2020/12/28 12:00:42;;;;;;;1.77;0.83;;;;;;;;;;5050340;28;20075;-73
2020/12/28 12:03:07;;;;;;;3.40;1.10;;;;;;;;;;5049146;28;20267;-73
2020/12/28 12:05:33;;;;;;;1.52;1.02;;;;;;;;;;5048605;28;20029;-72
2020/12/28 12:07:59;;;;;;;2.67;1.30;;;;;;;;;;5050094;28;20529;-72
2020/12/28 12:10:24;;;;;;;2.35;1.05;;;;;;;;;;5056950;28;20465;-71
2020/12/28 12:12:49;;;;;;;2.78;0.95;;;;;;;;;;5044689;28;20032;-73
2020/12/28 12:15:14;;;;;;;1.53;1.03;;;;;;;;;;5052368;28;20374;-72
2020/12/28 12:17:39;;;;;;;1.50;1.00;;;;;;;;;;5048259;28;20268;-73
2020/12/28 12:20:05;;;;;;;1.08;0.90;;;;;;;;;;5053236;28;20036;-72
2020/12/28 12:22:30;;;;;;;1.70;1.13;;;;;;;;;;5051848;28;20028;-72
2020/12/28 12:24:55;;;;;;;3.92;1.05;;;;;;;;;;5044916;28;20016;-72
2020/12/28 12:27:20;;;;;;;2.73;1.10;;;;;;;;;;5053209;28;20548;-72
2020/12/28 12:29:45;;;;;;;1.37;1.00;;;;;;;;;;5050491;28;20256;-71
2020/12/28 12:32:10;;;;;;;5.43;1.00;;;;;;;;;;5051384;28;20632;-72
2020/12/28 12:34:36;;;;;;;1.40;1.13;;;;;;;;;;5049156;28;20047;-73
2020/12/28 12:37:01;;;;;;;1.83;1.00;;;;;;;;;;5049784;28;20025;-71
2020/12/28 12:39:26;;;;;;;2.45;0.75;;;;;;;;;;5055150;28;20405;-71
2020/12/28 12:41:51;;;;;;;1.50;0.70;;;;;;;;;;5050412;28;20053;-71
2020/12/28 12:44:16;;;;;;;1.00;0.53;;;;;;;;;;5044544;28;20028;-71
2020/12/28 12:46:42;;;;;;;1.33;0.80;;;;;;;;;;5048752;28;20280;-71
2020/12/28 12:49:07;;;;;;;2.15;1.30;;;;;;;;;;5048954;28;20086;-72
2020/12/28 12:51:32;;;;;;;1.35;0.70;;;;;;;;;;5041713;28;20612;-71
2020/12/28 12:53:57;;;;;;;2.93;1.03;;;;;;;;;;5049245;28;20036;-71
2020/12/28 12:56:22;;;;;;;2.30;0.87;;;;;;;;;;5075591;22;21143;-72
2020/12/28 12:58:48;;;;;;;6.90;0.88;;;;;;;;;;5062179;28;20271;-72
2020/12/28 13:01:13;;;;;;;8.48;0.82;;;;;;;;;;5051200;28;20059;-72
2020/12/28 13:03:39;;;;;;;6.85;0.73;;;;;;;;;;5050005;28;20100;-72
2020/12/28 13:06:04;;;;;;;0.63;0.60;;;;;;;;;;5051020;28;20492;-72
2020/12/28 13:08:29;;;;;;;2.73;0.97;;;;;;;;;;5050351;28;20021;-72
2020/12/28 13:10:54;;;;;;;1.65;0.80;;;;;;;;;;5048065;28;20653;-72
2020/12/28 13:13:20;;;;;;;1.53;0.60;;;;;;;;;;5050806;28;20444;-72
2020/12/28 13:15:47;;;;;;;1.17;0.50;;;;;;;;;;5048292;28;20272;-72
2020/12/28 13:18:12;;;;;;;0.95;0.85;;;;;;;;;;5050394;28;20473;-72
2020/12/28 13:20:38;;;;;;;1.58;0.85;;;;;;;;;;5052090;28;20024;-73
2020/12/28 13:23:05;;;;;;;2.97;0.90;;;;;;;;;;5051782;28;20088;-72
2020/12/28 13:25:30;;;;;;;10.63;0.75;;;;;;;;;;5049726;28;20018;-72
2020/12/28 13:27:55;;;;;;;0.77;0.57;;;;;;;;;;5061336;28;20028;-72
2020/12/28 13:30:20;;;;;;;0.70;0.40;;;;;;;;;;5053194;28;20299;-72
2020/12/28 13:32:46;;;;;;;1.27;0.90;;;;;;;;;;5051576;28;20088;-72
2020/12/28 13:35:11;;;;;;;2.63;0.80;;;;;;;;;;5051979;28;20092;-72
2020/12/28 13:37:36;;;;;;;3.97;0.75;;;;;;;;;;5049649;28;20039;-72
2020/12/28 13:40:03;;;;;;;1.42;0.60;;;;;;;;;;5049551;28;20079;-72
2020/12/28 13:42:29;;;;;;;2.63;1.23;;;;;;;;;;5054443;28;20033;-72
2020/12/28 13:44:54;;;;;;;8.98;2.03;;;;;;;;;;5067443;28;20301;-72
2020/12/28 13:47:22;;;;;;;2.05;0.85;;;;;;;;;;5050080;28;20032;-73
2020/12/28 13:49:48;;;;;;;4.63;1.38;;;;;;;;;;5033287;28;20028;-72
2020/12/28 13:52:13;;;;;;;4.50;1.38;;;;;;;;;;5050383;28;20099;-72
2020/12/28 13:54:38;;;;;;;3.78;0.82;;;;;;;;;;5051258;28;20032;-72
2020/12/28 13:57:03;;;;;;;4.00;1.20;;;;;;;;;;5050512;28;20037;-72
2020/12/28 13:59:29;;;;;;;3.95;1.25;;;;;;;;;;5051406;28;20278;-72
2020/12/28 14:01:55;;;;;;;2.58;1.10;;;;;;;;;;5049944;28;20028;-72
2020/12/28 14:04:21;;;;;;;5.57;1.25;;;;;;;;;;5049716;28;20032;-72
2020/12/28 14:06:47;;;;;;;2.65;1.20;;;;;;;;;;5065891;28;20036;-72
2020/12/28 14:09:12;;;;;;;2.83;1.20;;;;;;;;;;5048869;28;20393;-72
2020/12/28 14:11:38;;;;;;;3.47;1.50;;;;;;;;;;5066214;28;20120;-72
2020/12/28 14:14:03;;;;;;;2.92;1.40;;;;;;;;;;5049242;28;20024;-72
2020/12/28 14:16:29;;;;;;;2.92;1.30;;;;;;;;;;5050929;28;20515;-72
2020/12/28 14:18:54;;;;;;;2.85;1.40;;;;;;;;;;5049847;28;20036;-72
2020/12/28 14:21:19;;;;;;;5.03;1.00;;;;;;;;;;5050458;28;20028;-72
2020/12/28 14:23:45;;;;;;;4.38;1.48;;;;;;;;;;5050658;28;20028;-72
2020/12/28 14:26:17;;;;;;;1.85;0.95;;;;;;;;;;5050758;28;20021;-72
2020/12/28 14:28:42;;;;;;;4.85;1.15;;;;;;;;;;5050698;28;20122;-72
2020/12/28 14:31:14;;;;;;;4.18;1.20;;;;;;;;;;5047490;28;20444;-72
2020/12/28 14:33:40;;;;;;;2.53;1.40;;;;;;;;;;5045191;28;20025;-72
2020/12/28 14:36:09;;;;;;;4.72;1.48;;;;;;;;;;5050679;28;20035;-71